Time;durP1;ratioP1;P1;durP2;ratioP2;P2;SDS_P1;SDS_P2;PMS_P1;PMS_P2;Temp;Humidity;BMP_temperature;BMP_pressure;BME280_temperature;BME280_humidity;BME280_pressure;Samples;Min_cycle;Max_cycle;Signal;HPM_P1;HPM_P2
2023/10/26 00:01:32;;;;;;;1.23;0.35;;;8.70;99.90;;;;;;4960150;29;20078;-77
2023/10/26 00:03:59;;;;;;;2.85;0.70;;;8.70;99.90;;;;;;4959302;29;20081;-77
2023/10/26 00:06:25;;;;;;;3.40;0.32;;;8.50;99.90;;;;;;4958841;29;20077;-77
2023/10/26 00:08:50;;;;;;;2.22;1.58;;;8.50;99.90;;;;;;4959435;29;20118;-77
2023/10/26 00:11:16;;;;;;;0.95;0.60;;;8.40;99.90;;;;;;4958266;29;20024;-77
2023/10/26 00:13:41;;;;;;;0.40;0.40;;;8.40;99.90;;;;;;4958252;28;20137;-77
2023/10/26 00:16:07;;;;;;;4.40;0.40;;;8.40;99.90;;;;;;4956988;29;20069;-77
2023/10/26 00:18:33;;;;;;;1.20;0.30;;;8.40;99.90;;;;;;4960571;29;20054;-77
2023/10/26 00:20:59;;;;;;;0.40;0.40;;;8.20;99.90;;;;;;4960948;29;20407;-77
2023/10/26 00:23:25;;;;;;;1.42;0.85;;;8.10;99.90;;;;;;4956487;29;20033;-77
2023/10/26 00:25:51;;;;;;;3.30;0.52;;;8.20;99.90;;;;;;4957768;28;20091;-77
2023/10/26 00:28:16;;;;;;;1.88;0.47;;;8.10;99.90;;;;;;4956015;29;20481;-77
2023/10/26 00:30:42;;;;;;;0.40;0.40;;;8.10;99.90;;;;;;4957704;29;20035;-77
2023/10/26 00:33:08;;;;;;;1.75;0.50;;;8.10;99.90;;;;;;4956609;29;20047;-77
2023/10/26 00:35:35;;;;;;;0.50;0.47;;;8.20;99.90;;;;;;4956697;29;20098;-77
2023/10/26 00:38:01;;;;;;;2.35;0.90;;;8.20;99.90;;;;;;4956291;29;20031;-78
2023/10/26 00:40:27;;;;;;;0.50;0.43;;;8.20;99.90;;;;;;4956442;29;20384;-77
2023/10/26 00:43:02;;;;;;;4.20;0.52;;;8.30;99.90;;;;;;4955762;29;20110;-77
2023/10/26 00:45:35;;;;;;;2.03;0.50;;;8.50;99.90;;;;;;4957122;28;20074;-77
2023/10/26 00:48:01;;;;;;;0.28;0.28;;;8.50;99.90;;;;;;4956092;28;20039;-77
2023/10/26 00:50:27;;;;;;;0.75;0.30;;;8.60;99.90;;;;;;4957776;29;20103;-77
2023/10/26 00:52:54;;;;;;;1.27;0.45;;;8.60;99.90;;;;;;4957746;28;20031;-78
2023/10/26 00:55:21;;;;;;;3.13;1.40;;;8.70;99.90;;;;;;4957195;28;20476;-77
2023/10/26 00:57:46;;;;;;;0.22;0.22;;;8.70;99.90;;;;;;4957354;28;20113;-77
2023/10/26 01:00:13;;;;;;;0.45;0.45;;;8.70;99.90;;;;;;4956913;28;20564;-77
2023/10/26 01:02:39;;;;;;;0.65;0.65;;;8.70;99.90;;;;;;4956904;28;20488;-77
2023/10/26 01:05:05;;;;;;;0.75;0.40;;;8.70;99.90;;;;;;4956545;29;20110;-77
2023/10/26 01:07:30;;;;;;;3.40;0.57;;;8.70;99.90;;;;;;4957474;29;20081;-77
2023/10/26 01:09:57;;;;;;;0.88;0.70;;;8.70;99.90;;;;;;4956959;29;20453;-76
2023/10/26 01:12:23;;;;;;;0.98;0.50;;;8.80;99.90;;;;;;4956853;29;20507;-77
2023/10/26 01:14:49;;;;;;;0.40;0.40;;;8.80;99.90;;;;;;4956482;28;20106;-77
2023/10/26 01:17:15;;;;;;;0.40;0.40;;;9.00;99.90;;;;;;4956660;29;20051;-77
2023/10/26 01:19:43;;;;;;;1.05;0.68;;;9.00;99.90;;;;;;4955018;29;20031;-77
2023/10/26 01:22:09;;;;;;;0.20;0.20;;;9.00;99.90;;;;;;4955134;29;20106;-77
2023/10/26 01:24:35;;;;;;;2.22;0.52;;;9.10;99.90;;;;;;4955217;29;20118;-77
2023/10/26 01:27:00;;;;;;;2.67;0.93;;;9.00;99.90;;;;;;4956280;28;20117;-77
2023/10/26 01:29:27;;;;;;;1.17;1.02;;;9.00;99.90;;;;;;4956652;29;20098;-77
2023/10/26 01:31:52;;;;;;;3.38;0.40;;;9.00;99.90;;;;;;4956493;29;20102;-77
2023/10/26 01:34:18;;;;;;;0.47;0.40;;;9.00;99.90;;;;;;4956409;29;20059;-77
2023/10/26 01:36:44;;;;;;;0.30;0.30;;;9.10;99.90;;;;;;4956500;29;20034;-77
2023/10/26 01:39:10;;;;;;;2.33;0.75;;;9.10;99.90;;;;;;4956237;29;20023;-77
2023/10/26 01:41:36;;;;;;;4.57;1.45;;;9.10;99.90;;;;;;4956352;28;20090;-77
2023/10/26 01:44:02;;;;;;;0.57;0.35;;;9.10;99.90;;;;;;4954999;29;20023;-77
2023/10/26 01:46:28;;;;;;;1.83;0.60;;;9.20;99.90;;;;;;4954906;29;20500;-77
2023/10/26 01:48:54;;;;;;;2.00;1.25;;;9.20;99.90;;;;;;4955174;29;20030;-77
2023/10/26 01:51:20;;;;;;;0.30;0.30;;;9.30;99.90;;;;;;4955974;28;20078;-77
2023/10/26 01:53:47;;;;;;;0.50;0.50;;;9.20;99.90;;;;;;4954990;29;20082;-77
2023/10/26 01:56:12;;;;;;;2.15;0.50;;;9.30;99.90;;;;;;4957076;29;20589;-77
2023/10/26 01:58:38;;;;;;;1.63;0.47;;;9.40;99.90;;;;;;4956323;29;20027;-77
2023/10/26 02:01:05;;;;;;;1.45;0.35;;;9.40;99.90;;;;;;4955275;29;20031;-77
2023/10/26 02:03:31;;;;;;;0.80;0.40;;;9.50;99.90;;;;;;4956475;28;20059;-77
2023/10/26 02:05:57;;;;;;;0.55;0.35;;;9.60;99.90;;;;;;4955228;29;20035;-77
2023/10/26 02:08:22;;;;;;;1.60;0.60;;;9.60;99.90;;;;;;4955285;29;20035;-77
2023/10/26 02:10:48;;;;;;;0.98;0.40;;;9.70;99.90;;;;;;4955240;29;20031;-77
2023/10/26 02:13:13;;;;;;;0.40;0.40;;;9.70;99.90;;;;;;4955359;29;20098;-77
2023/10/26 02:15:39;;;;;;;2.03;0.50;;;9.60;99.90;;;;;;4955793;29;20034;-77
2023/10/26 02:18:04;;;;;;;5.45;1.50;;;9.60;99.90;;;;;;4956904;29;20403;-77
2023/10/26 02:20:30;;;;;;;0.40;0.40;;;9.80;99.90;;;;;;4956896;29;20023;-77
2023/10/26 02:22:56;;;;;;;0.28;0.28;;;9.70;99.90;;;;;;4956375;29;20038;-77
2023/10/26 02:25:21;;;;;;;2.25;0.40;;;9.70;99.90;;;;;;4956304;29;20119;-77
2023/10/26 02:27:47;;;;;;;0.75;0.30;;;9.70;99.90;;;;;;4957685;28;20044;-77
2023/10/26 02:30:13;;;;;;;0.30;0.30;;;9.70;99.90;;;;;;4957055;29;20031;-78
2023/10/26 02:32:40;;;;;;;3.03;0.47;;;9.70;99.90;;;;;;4961672;28;20023;-77
2023/10/26 02:35:06;;;;;;;0.52;0.43;;;9.70;99.90;;;;;;4962505;28;20039;-77
2023/10/26 02:37:38;;;;;;;1.27;0.40;;;9.70;99.90;;;;;;4962820;28;20035;-77
2023/10/26 02:40:08;;;;;;;2.22;0.40;;;9.80;99.90;;;;;;4962104;28;20079;-77
2023/10/26 02:42:35;;;;;;;0.40;0.40;;;10.00;99.90;;;;;;4960801;28;20038;-77
2023/10/26 02:45:03;;;;;;;0.52;0.32;;;10.10;99.90;;;;;;4957551;29;20023;-78
2023/10/26 02:47:29;;;;;;;0.30;0.30;;;10.10;99.90;;;;;;4957584;28;20094;-77
2023/10/26 02:49:54;;;;;;;0.50;0.50;;;10.00;99.90;;;;;;4958541;29;20032;-78
2023/10/26 02:52:20;;;;;;;0.20;0.20;;;10.10;99.90;;;;;;4960055;28;20059;-77
2023/10/26 02:54:46;;;;;;;0.60;0.30;;;10.10;99.90;;;;;;4957351;29;20081;-77
2023/10/26 02:57:14;;;;;;;1.45;0.20;;;10.10;99.90;;;;;;4955267;28;20431;-78
2023/10/26 02:59:40;;;;;;;1.02;0.50;;;10.00;99.90;;;;;;4955150;28;20126;-77
2023/10/26 03:02:06;;;;;;;3.72;0.77;;;10.00;99.90;;;;;;4954360;29;20386;-78
2023/10/26 03:04:34;;;;;;;2.38;0.40;;;10.10;99.90;;;;;;4954687;29;20030;-77
2023/10/26 03:07:00;;;;;;;1.65;0.60;;;10.10;99.90;;;;;;4954354;29;20086;-78
2023/10/26 03:09:26;;;;;;;2.67;0.40;;;10.20;99.90;;;;;;4953943;29;20019;-77
2023/10/26 03:11:51;;;;;;;0.40;0.40;;;10.30;99.90;;;;;;4954259;28;20090;-77
2023/10/26 03:14:18;;;;;;;0.50;0.50;;;10.30;99.90;;;;;;4958904;28;20027;-77
2023/10/26 03:16:44;;;;;;;12.38;1.52;;;10.30;99.90;;;;;;4957264;29;20027;-77
2023/10/26 03:19:10;;;;;;;0.40;0.40;;;10.20;99.90;;;;;;4958422;29;20040;-77
2023/10/26 03:21:35;;;;;;;0.85;0.40;;;10.20;99.90;;;;;;4957713;29;20024;-77
2023/10/26 03:24:02;;;;;;;4.45;0.82;;;10.20;99.90;;;;;;4959334;29;20037;-78
2023/10/26 03:26:28;;;;;;;4.10;0.60;;;10.20;99.90;;;;;;4959518;28;20027;-77
2023/10/26 03:28:53;;;;;;;0.40;0.40;;;10.20;99.90;;;;;;4959215;29;20038;-77
2023/10/26 03:31:19;;;;;;;0.52;0.52;;;10.20;99.90;;;;;;4957034;29;20030;-78
2023/10/26 03:33:45;;;;;;;1.48;0.70;;;10.20;99.90;;;;;;4956992;29;20034;-77
2023/10/26 03:36:19;;;;;;;2.17;0.55;;;10.20;99.90;;;;;;4957231;29;20097;-77
2023/10/26 03:38:46;;;;;;;1.50;0.80;;;10.20;99.90;;;;;;4957183;29;20035;-77
2023/10/26 03:41:13;;;;;;;1.77;0.75;;;10.30;99.90;;;;;;4958603;28;20098;-77
2023/10/26 03:43:38;;;;;;;1.42;0.70;;;10.30;99.90;;;;;;4956147;29;20046;-77
2023/10/26 03:46:05;;;;;;;0.98;0.95;;;10.20;99.90;;;;;;4957080;29;20031;-77
2023/10/26 03:48:31;;;;;;;3.83;0.60;;;10.20;99.90;;;;;;4958214;29;20054;-77
2023/10/26 03:50:59;;;;;;;1.20;0.93;;;10.20;99.90;;;;;;4960593;28;20051;-77
2023/10/26 03:53:25;;;;;;;3.72;1.48;;;10.20;99.90;;;;;;4959126;29;20039;-77
2023/10/26 03:55:50;;;;;;;1.25;0.93;;;10.20;99.90;;;;;;4959632;28;20126;-77
2023/10/26 03:58:17;;;;;;;0.90;0.90;;;10.20;99.90;;;;;;4960086;29;20441;-77
2023/10/26 04:00:45;;;;;;;3.80;1.20;;;10.20;99.90;;;;;;4958516;29;20393;-77
2023/10/26 04:03:11;;;;;;;4.33;1.40;;;10.30;99.90;;;;;;4959096;28;20019;-77
2023/10/26 04:05:37;;;;;;;4.18;1.77;;;10.30;99.90;;;;;;4959288;29;20102;-77
2023/10/26 04:08:04;;;;;;;25.88;2.58;;;10.30;99.90;;;;;;4957914;29;20071;-77
2023/10/26 04:10:29;;;;;;;1.42;1.33;;;10.40;99.90;;;;;;4959325;28;20022;-77
2023/10/26 04:12:55;;;;;;;2.28;1.45;;;10.40;99.90;;;;;;4959613;29;20031;-77
2023/10/26 04:15:21;;;;;;;2.83;1.95;;;10.60;99.90;;;;;;4959788;29;20065;-77
2023/10/26 04:17:46;;;;;;;3.50;1.60;;;10.50;99.90;;;;;;4958368;29;20512;-77
2023/10/26 04:20:12;;;;;;;2.35;1.83;;;10.50;99.90;;;;;;4958211;29;20155;-78
2023/10/26 04:22:38;;;;;;;2.22;1.67;;;10.50;99.90;;;;;;4959534;28;20035;-78
2023/10/26 04:25:04;;;;;;;3.53;1.95;;;10.50;99.90;;;;;;4957659;29;20015;-78
2023/10/26 04:27:33;;;;;;;5.55;2.13;;;10.50;99.90;;;;;;4959562;28;20391;-78
2023/10/26 04:29:59;;;;;;;2.20;2.10;;;10.60;99.90;;;;;;4959897;29;20428;-77
2023/10/26 04:32:25;;;;;;;2.53;2.33;;;10.60;99.90;;;;;;4961076;29;20038;-77
2023/10/26 04:34:50;;;;;;;2.53;2.33;;;10.50;99.90;;;;;;4960569;29;20027;-77
2023/10/26 04:37:16;;;;;;;3.55;2.25;;;10.60;99.90;;;;;;4958823;29;20490;-77
2023/10/26 04:39:43;;;;;;;5.78;2.58;;;10.60;99.90;;;;;;4957777;29;20027;-78
2023/10/26 04:42:12;;;;;;;2.88;2.67;;;10.60;99.90;;;;;;4958897;29;20023;-77
2023/10/26 04:44:41;;;;;;;3.83;2.88;;;10.70;99.90;;;;;;4961320;28;20031;-77
2023/10/26 04:47:06;;;;;;;3.03;2.73;;;10.60;99.90;;;;;;4961450;29;20526;-77
2023/10/26 04:49:35;;;;;;;7.18;2.92;;;10.70;99.90;;;;;;4960506;29;20027;-76
2023/10/26 04:52:01;;;;;;;4.47;3.40;;;10.80;99.90;;;;;;4958256;28;20074;-77
2023/10/26 04:54:29;;;;;;;3.50;3.20;;;10.80;99.90;;;;;;4957192;29;20433;-77
2023/10/26 04:56:55;;;;;;;4.05;3.65;;;10.70;99.90;;;;;;4956590;29;20083;-77
2023/10/26 04:59:21;;;;;;;7.32;4.10;;;10.70;99.90;;;;;;4958243;28;20011;-77
2023/10/26 05:01:48;;;;;;;5.35;4.20;;;10.70;99.90;;;;;;4957709;29;20041;-77
2023/10/26 05:04:15;;;;;;;7.60;4.25;;;10.80;99.90;;;;;;4958629;29;20536;-78
2023/10/26 05:06:40;;;;;;;5.90;3.90;;;10.80;99.90;;;;;;4957064;29;20035;-77
2023/10/26 05:09:08;;;;;;;3.88;3.50;;;10.80;99.90;;;;;;4959218;28;20055;-77
2023/10/26 05:11:33;;;;;;;6.30;4.57;;;10.80;99.90;;;;;;4965518;29;20213;-78
2023/10/26 05:13:59;;;;;;;6.47;4.88;;;10.80;99.90;;;;;;4963969;29;20031;-78
2023/10/26 05:16:25;;;;;;;6.13;4.88;;;10.90;99.90;;;;;;4964584;28;20022;-77
2023/10/26 05:18:51;;;;;;;4.25;3.88;;;10.80;99.90;;;;;;4962921;28;20433;-78
2023/10/26 05:21:16;;;;;;;7.63;4.82;;;10.90;99.90;;;;;;4963436;29;20027;-78
2023/10/26 05:23:43;;;;;;;4.80;4.30;;;10.80;99.90;;;;;;4962087;29;20034;-77
2023/10/26 05:26:09;;;;;;;5.93;4.90;;;10.90;99.90;;;;;;4963267;29;20099;-78
2023/10/26 05:28:35;;;;;;;6.38;4.82;;;10.80;99.90;;;;;;4962569;29;20038;-77
2023/10/26 05:31:01;;;;;;;7.55;4.50;;;10.90;99.90;;;;;;4963734;29;20024;-77
2023/10/26 05:33:26;;;;;;;6.30;5.43;;;10.90;99.90;;;;;;4961835;29;20024;-77
2023/10/26 05:35:52;;;;;;;5.72;4.95;;;10.90;99.90;;;;;;4961540;28;20047;-77
2023/10/26 05:38:19;;;;;;;5.63;4.40;;;11.00;99.90;;;;;;4959424;29;20031;-77
2023/10/26 05:40:53;;;;;;;7.70;5.45;;;10.90;99.90;;;;;;4956702;29;20026;-78
2023/10/26 05:43:19;;;;;;;7.57;5.43;;;10.90;99.90;;;;;;4958722;28;20031;-77
2023/10/26 05:45:45;;;;;;;5.65;4.75;;;10.90;99.90;;;;;;4957380;29;20389;-77
2023/10/26 05:48:10;;;;;;;5.68;5.07;;;11.00;99.90;;;;;;4960274;28;20035;-76
2023/10/26 05:50:41;;;;;;;5.80;5.05;;;11.00;99.90;;;;;;4959163;29;20036;-77
2023/10/26 05:53:09;;;;;;;5.38;4.53;;;11.00;99.90;;;;;;4958267;28;20062;-78
2023/10/26 05:55:35;;;;;;;8.95;5.93;;;11.00;99.90;;;;;;4956533;29;20046;-79
2023/10/26 05:58:01;;;;;;;7.63;5.38;;;11.00;99.90;;;;;;4959022;28;20139;-79
2023/10/26 06:00:29;;;;;;;7.22;5.43;;;10.90;99.90;;;;;;4957526;29;20082;-79
2023/10/26 06:02:54;;;;;;;7.20;5.07;;;10.80;99.90;;;;;;4958782;29;20392;-78
2023/10/26 06:05:20;;;;;;;7.68;5.07;;;10.90;99.90;;;;;;4957327;29;20473;-78
2023/10/26 06:07:46;;;;;;;8.50;4.75;;;10.90;99.90;;;;;;4957063;29;20062;-78
2023/10/26 06:10:12;;;;;;;4.55;3.97;;;10.90;99.90;;;;;;4957772;29;20571;-79
2023/10/26 06:12:38;;;;;;;4.30;3.90;;;10.90;99.90;;;;;;4957929;29;20031;-78
2023/10/26 06:15:04;;;;;;;8.07;3.67;;;11.00;99.90;;;;;;4960501;29;20031;-78
2023/10/26 06:17:30;;;;;;;5.78;4.47;;;11.00;99.90;;;;;;4960839;28;20109;-77
2023/10/26 06:19:55;;;;;;;5.80;4.38;;;11.00;99.90;;;;;;4960379;29;20114;-77
2023/10/26 06:22:21;;;;;;;6.55;4.72;;;10.90;99.90;;;;;;4958744;29;20023;-78
2023/10/26 06:24:47;;;;;;;6.53;4.85;;;11.00;99.90;;;;;;4961025;29;20032;-78
2023/10/26 06:27:14;;;;;;;5.30;4.75;;;11.00;99.90;;;;;;4959278;29;20099;-78
2023/10/26 06:29:41;;;;;;;6.38;5.28;;;11.10;99.90;;;;;;4958576;29;20117;-78
2023/10/26 06:32:07;;;;;;;5.43;4.75;;;11.00;99.90;;;;;;4958925;29;20063;-78
2023/10/26 06:34:33;;;;;;;6.35;5.40;;;11.00;99.90;;;;;;4960744;28;20024;-78
2023/10/26 06:36:58;;;;;;;8.82;5.30;;;11.00;99.90;;;;;;4959025;29;20027;-77
2023/10/26 06:39:24;;;;;;;5.25;4.75;;;11.10;99.90;;;;;;4959461;29;20521;-78
2023/10/26 06:41:50;;;;;;;6.93;4.15;;;11.10;99.90;;;;;;4956284;29;20027;-77
2023/10/26 06:44:17;;;;;;;5.60;4.30;;;11.10;99.90;;;;;;4956659;29;20095;-79
2023/10/26 06:46:43;;;;;;;5.53;4.30;;;11.20;99.90;;;;;;4957214;28;20563;-78
2023/10/26 06:49:09;;;;;;;3.85;3.45;;;11.20;99.90;;;;;;4962612;29;20039;-78
2023/10/26 06:51:35;;;;;;;6.45;3.60;;;11.20;99.90;;;;;;4961618;29;20024;-77
2023/10/26 06:54:01;;;;;;;3.45;3.13;;;11.30;99.90;;;;;;4959717;29;20103;-78
2023/10/26 06:56:26;;;;;;;5.32;2.90;;;11.30;99.90;;;;;;4960026;29;20027;-79
2023/10/26 06:58:52;;;;;;;3.25;2.30;;;11.40;99.90;;;;;;4959517;29;20436;-77
2023/10/26 07:01:17;;;;;;;2.35;2.15;;;11.40;99.90;;;;;;4960220;29;20031;-78
2023/10/26 07:03:43;;;;;;;3.22;2.50;;;11.50;99.90;;;;;;4960076;29;20030;-76
2023/10/26 07:06:09;;;;;;;3.17;1.77;;;11.70;99.90;;;;;;4959795;29;20027;-78
2023/10/26 07:08:34;;;;;;;1.45;1.20;;;11.80;99.90;;;;;;4965861;29;20042;-77
2023/10/26 07:11:05;;;;;;;0.30;0.30;;;12.00;99.90;;;;;;4964387;29;20019;-77
2023/10/26 07:13:31;;;;;;;2.22;0.30;;;12.30;99.90;;;;;;4961214;28;20396;-77
2023/10/26 07:16:01;;;;;;;0.93;0.30;;;12.60;99.90;;;;;;4961285;29;20029;-75
2023/10/26 07:18:27;;;;;;;1.85;0.50;;;12.80;99.90;;;;;;4961376;28;20047;-75
2023/10/26 07:20:53;;;;;;;0.82;0.35;;;12.90;99.90;;;;;;4959730;29;20026;-77
2023/10/26 07:23:19;;;;;;;0.50;0.38;;;13.20;99.90;;;;;;4959716;29;20038;-76
2023/10/26 07:25:45;;;;;;;0.20;0.20;;;13.40;99.90;;;;;;4959370;29;20023;-77
2023/10/26 07:28:11;;;;;;;0.45;0.30;;;13.50;99.90;;;;;;4960456;28;20227;-77
2023/10/26 07:30:44;;;;;;;0.38;0.20;;;13.60;99.90;;;;;;4960288;29;20027;-76
2023/10/26 07:33:10;;;;;;;0.20;0.20;;;13.70;99.90;;;;;;4960003;29;20020;-75
2023/10/26 07:35:40;;;;;;;0.75;0.20;;;13.80;99.90;;;;;;4959866;28;20042;-75
2023/10/26 07:38:09;;;;;;;2.45;0.35;;;13.90;99.90;;;;;;4960873;28;20051;-76
2023/10/26 07:40:37;;;;;;;1.48;0.50;;;14.00;99.90;;;;;;4958149;29;20023;-76
2023/10/26 07:43:03;;;;;;;0.75;0.20;;;14.00;99.90;;;;;;4957921;29;20066;-76
2023/10/26 07:45:28;;;;;;;0.63;0.30;;;13.90;99.90;;;;;;4958527;29;20030;-78
2023/10/26 07:47:57;;;;;;;4.95;1.13;;;13.90;99.90;;;;;;4965583;29;20042;-76
2023/10/26 07:50:23;;;;;;;3.25;0.60;;;13.90;99.90;;;;;;4967602;28;20023;-76
2023/10/26 07:52:49;;;;;;;3.83;0.40;;;13.90;99.90;;;;;;4963338;29;20035;-77
2023/10/26 07:55:17;;;;;;;1.95;0.60;;;13.90;99.90;;;;;;4965520;29;20011;-77
2023/10/26 07:57:43;;;;;;;0.40;0.35;;;13.90;99.90;;;;;;4965433;28;20031;-79
2023/10/26 08:00:11;;;;;;;1.05;0.38;;;13.90;99.90;;;;;;4964969;28;20042;-78
2023/10/26 08:02:38;;;;;;;0.40;0.40;;;13.90;99.90;;;;;;4968853;28;20023;-76
2023/10/26 08:05:04;;;;;;;3.47;1.40;;;13.90;99.90;;;;;;4973101;28;20019;-75
2023/10/26 08:07:30;;;;;;;0.65;0.43;;;13.90;99.90;;;;;;4970177;29;20031;-77
2023/10/26 08:09:56;;;;;;;2.03;0.60;;;13.90;99.90;;;;;;4972102;29;20043;-78
2023/10/26 08:12:22;;;;;;;0.63;0.40;;;13.90;99.90;;;;;;4965146;28;20338;-76
2023/10/26 08:14:52;;;;;;;0.30;0.30;;;13.80;99.90;;;;;;4969901;28;20023;-77
2023/10/26 08:17:20;;;;;;;3.35;1.45;;;13.80;99.90;;;;;;4967969;29;20047;-77
2023/10/26 08:19:53;;;;;;;1.85;0.30;;;13.80;99.90;;;;;;4967389;29;20030;-77
2023/10/26 08:22:55;;;;;;;1.40;0.50;;;13.70;99.90;;;;;;4974535;28;20042;-77
2023/10/26 08:25:26;;;;;;;0.75;0.57;;;13.70;99.90;;;;;;4978826;28;20031;-77
2023/10/26 08:27:58;;;;;;;3.53;0.90;;;13.70;99.90;;;;;;4976124;29;20102;-78
2023/10/26 08:30:29;;;;;;;2.40;0.90;;;13.70;99.90;;;;;;4976990;28;20035;-77
2023/10/26 08:33:36;;;;;;;6.10;1.02;;;13.70;99.90;;;;;;4981566;28;20019;-76
2023/10/26 08:36:04;;;;;;;4.68;1.88;;;13.60;99.90;;;;;;4982255;28;20079;-77
2023/10/26 08:38:29;;;;;;;4.05;0.70;;;13.50;99.90;;;;;;4981366;28;20046;-77
2023/10/26 08:40:55;;;;;;;4.65;1.42;;;13.50;99.90;;;;;;4981665;28;20042;-77
2023/10/26 08:43:22;;;;;;;3.45;0.68;;;13.60;99.90;;;;;;4982009;28;20018;-79
2023/10/26 08:45:48;;;;;;;3.70;1.00;;;13.60;99.90;;;;;;4980308;28;20114;-77
2023/10/26 08:48:18;;;;;;;4.68;1.30;;;13.70;99.90;;;;;;4978262;29;20043;-77
2023/10/26 08:50:48;;;;;;;2.90;0.93;;;13.80;99.90;;;;;;4967920;29;20034;-77
2023/10/26 08:53:15;;;;;;;10.32;1.42;;;13.90;99.90;;;;;;4970922;28;20270;-77
2023/10/26 08:55:42;;;;;;;2.08;0.60;;;14.00;99.90;;;;;;4972525;29;20015;-77
2023/10/26 08:58:08;;;;;;;8.73;1.10;;;14.10;99.90;;;;;;4972396;29;20098;-78
2023/10/26 09:00:38;;;;;;;7.07;1.45;;;14.20;99.90;;;;;;4974435;29;20016;-76
2023/10/26 09:03:04;;;;;;;8.07;1.30;;;14.30;99.90;;;;;;4972297;28;20029;-77
2023/10/26 09:05:30;;;;;;;5.93;1.27;;;14.40;99.90;;;;;;4972322;29;20031;-76
2023/10/26 09:07:55;;;;;;;11.85;2.10;;;14.30;99.90;;;;;;4973020;29;20100;-76
2023/10/26 09:10:32;;;;;;;8.57;0.98;;;14.40;99.90;;;;;;4971351;28;20034;-76
2023/10/26 09:13:00;;;;;;;4.10;1.00;;;14.50;99.90;;;;;;4971721;28;20027;-76
2023/10/26 09:15:26;;;;;;;11.20;3.10;;;14.50;99.90;;;;;;4970919;29;20023;-76
2023/10/26 09:17:57;;;;;;;8.38;1.50;;;14.60;99.90;;;;;;4961575;29;20083;-78
2023/10/26 09:20:24;;;;;;;7.13;1.70;;;14.60;99.90;;;;;;4959617;29;20268;-77
2023/10/26 09:22:49;;;;;;;7.28;1.42;;;14.70;99.90;;;;;;4967266;28;20034;-78
2023/10/26 09:25:15;;;;;;;8.88;1.20;;;14.80;99.90;;;;;;4972103;29;20062;-76
2023/10/26 09:27:42;;;;;;;11.63;2.88;;;14.80;99.90;;;;;;4973475;29;20027;-76
2023/10/26 09:30:28;;;;;;;5.78;1.15;;;14.80;99.90;;;;;;4972616;28;20054;-77
2023/10/26 09:32:58;;;;;;;8.00;2.10;;;14.80;99.90;;;;;;4975698;28;20019;-76
2023/10/26 09:35:32;;;;;;;10.00;1.77;;;14.90;99.90;;;;;;4975355;28;20019;-77
2023/10/26 09:37:58;;;;;;;12.63;1.38;;;15.00;99.90;;;;;;4969347;29;20038;-77
2023/10/26 09:40:26;;;;;;;12.50;2.28;;;15.10;99.90;;;;;;4965519;28;20054;-76
2023/10/26 09:42:55;;;;;;;8.15;2.38;;;15.20;99.90;;;;;;4972806;28;20023;-76
2023/10/26 09:45:31;;;;;;;6.63;1.75;;;15.40;99.90;;;;;;4974474;28;20027;-76
2023/10/26 09:47:59;;;;;;;11.10;2.00;;;15.60;99.90;;;;;;4970701;29;20503;-76
2023/10/26 09:50:45;;;;;;;6.43;1.33;;;15.50;99.90;;;;;;4970637;28;20031;-76
2023/10/26 09:53:12;;;;;;;11.18;1.30;;;15.60;99.90;;;;;;4969388;29;20031;-76
2023/10/26 09:55:50;;;;;;;11.73;1.48;;;15.70;99.90;;;;;;4968694;28;20611;-76
2023/10/26 09:58:17;;;;;;;9.68;2.28;;;15.70;99.90;;;;;;4968087;29;20559;-75
2023/10/26 10:00:44;;;;;;;6.18;1.48;;;15.90;99.90;;;;;;4971307;28;20035;-76
2023/10/26 10:03:14;;;;;;;5.90;1.73;;;15.90;99.90;;;;;;4969438;29;20027;-76
2023/10/26 10:05:42;;;;;;;9.13;1.73;;;16.00;99.90;;;;;;4971536;28;20082;-76
2023/10/26 10:08:08;;;;;;;7.40;1.15;;;16.10;99.90;;;;;;4967745;29;20047;-76
2023/10/26 10:10:34;;;;;;;10.55;1.70;;;16.30;99.90;;;;;;4971700;29;20019;-76
2023/10/26 10:13:01;;;;;;;7.43;2.17;;;16.30;99.90;;;;;;4971073;29;20023;-75
2023/10/26 10:15:42;;;;;;;6.32;1.35;;;16.30;99.90;;;;;;4973525;28;20071;-75
2023/10/26 10:18:09;;;;;;;4.78;1.08;;;16.40;99.90;;;;;;4972204;29;20039;-75
2023/10/26 10:20:36;;;;;;;8.55;1.42;;;16.70;99.90;;;;;;4974201;28;20027;-76
2023/10/26 10:23:03;;;;;;;10.15;1.30;;;17.00;99.90;;;;;;4975713;29;20030;-77
2023/10/26 10:25:49;;;;;;;8.80;2.20;;;17.00;99.90;;;;;;4978035;28;20055;-76
2023/10/26 10:28:16;;;;;;;6.65;1.30;;;17.20;99.90;;;;;;4959059;29;20039;-75
2023/10/26 10:30:56;;;;;;;7.40;2.15;;;17.00;99.90;;;;;;4975201;29;20023;-76
2023/10/26 10:33:25;;;;;;;7.70;1.30;;;16.90;99.90;;;;;;4973501;29;20099;-75
2023/10/26 10:36:01;;;;;;;3.70;0.80;;;16.80;99.90;;;;;;4977204;29;20038;-75
2023/10/26 10:38:27;;;;;;;4.57;0.63;;;16.70;99.90;;;;;;4981336;28;20035;-75
2023/10/26 10:40:57;;;;;;;4.20;1.27;;;16.70;99.90;;;;;;4977094;29;20026;-75
2023/10/26 10:43:33;;;;;;;7.05;1.30;;;16.60;99.90;;;;;;4977212;28;20027;-75
2023/10/26 10:46:26;;;;;;;2.85;0.90;;;16.70;99.90;;;;;;4976981;29;20049;-74
2023/10/26 10:48:56;;;;;;;6.32;0.82;;;16.80;99.90;;;;;;4976239;29;20082;-75
2023/10/26 10:51:33;;;;;;;3.50;0.80;;;17.00;99.90;;;;;;4976498;29;20094;-75
2023/10/26 10:54:00;;;;;;;3.20;0.60;;;17.10;99.90;;;;;;4975404;28;20075;-76
2023/10/26 10:56:26;;;;;;;5.32;1.10;;;17.10;99.90;;;;;;4973264;28;20015;-77
2023/10/26 10:58:53;;;;;;;1.42;0.80;;;17.20;99.90;;;;;;4966716;29;20031;-79
2023/10/26 11:01:22;;;;;;;2.83;0.60;;;17.50;99.90;;;;;;4970516;28;20507;-80
2023/10/26 11:03:48;;;;;;;4.53;0.75;;;17.60;99.90;;;;;;4971512;28;20023;-78
2023/10/26 11:06:18;;;;;;;5.88;0.90;;;17.90;99.90;;;;;;4968325;29;20141;-80
2023/10/26 11:08:44;;;;;;;3.20;1.08;;;18.10;99.90;;;;;;4962751;28;20082;-80
2023/10/26 11:11:27;;;;;;;3.33;0.88;;;18.30;99.90;;;;;;4963011;29;20095;-78
2023/10/26 11:14:07;;;;;;;5.28;0.80;;;18.20;99.90;;;;;;4967693;29;20027;-80
2023/10/26 11:16:33;;;;;;;3.15;0.82;;;18.10;99.90;;;;;;4965526;28;20106;-78
2023/10/26 11:19:00;;;;;;;2.65;1.05;;;18.00;99.90;;;;;;4957007;29;20051;-80
2023/10/26 11:21:26;;;;;;;3.97;0.65;;;18.20;99.90;;;;;;4957010;29;20035;-81
2023/10/26 11:23:51;;;;;;;2.47;0.65;;;18.30;99.90;;;;;;4958224;29;20028;-82
2023/10/26 11:26:17;;;;;;;4.30;1.00;;;18.20;99.90;;;;;;4959871;28;20067;-82
2023/10/26 11:28:43;;;;;;;2.25;0.73;;;18.30;99.90;;;;;;4957670;29;20066;-82
2023/10/26 11:31:08;;;;;;;4.07;0.60;;;18.40;99.90;;;;;;4958120;29;20039;-82
2023/10/26 11:33:37;;;;;;;4.85;0.82;;;18.40;99.90;;;;;;4957427;28;20058;-83
2023/10/26 11:36:08;;;;;;;3.70;0.73;;;18.30;99.90;;;;;;4957061;29;20388;-84
2023/10/26 11:38:34;;;;;;;4.82;1.20;;;18.30;99.90;;;;;;4958121;28;20384;-84
2023/10/26 11:41:00;;;;;;;1.67;0.50;;;18.40;99.90;;;;;;4957091;29;20034;-84
2023/10/26 11:43:33;;;;;;;2.30;0.77;;;18.60;99.90;;;;;;4958314;28;20030;-83
2023/10/26 11:45:59;;;;;;;2.30;0.68;;;18.60;99.90;;;;;;4958043;28;20420;-83
2023/10/26 11:48:30;;;;;;;2.60;1.13;;;18.70;99.90;;;;;;4958136;28;20035;-83
2023/10/26 11:50:57;;;;;;;1.58;0.63;;;18.80;99.90;;;;;;4958191;28;20030;-84
2023/10/26 11:53:22;;;;;;;5.25;0.85;;;18.80;99.90;;;;;;4958286;28;20020;-81
2023/10/26 11:55:49;;;;;;;2.72;0.55;;;18.70;99.90;;;;;;4957856;28;20031;-84
2023/10/26 11:58:15;;;;;;;2.83;0.65;;;18.60;99.90;;;;;;4957702;28;20480;-85
2023/10/26 12:00:45;;;;;;;2.42;0.70;;;18.50;99.90;;;;;;4960258;28;20539;-84
2023/10/26 12:03:14;;;;;;;5.30;0.98;;;18.40;99.90;;;;;;4980641;28;20039;-83
2023/10/26 12:05:39;;;;;;;2.47;0.73;;;18.10;99.90;;;;;;4965599;29;20031;-85
2023/10/26 12:08:05;;;;;;;3.50;1.00;;;18.00;99.90;;;;;;4961573;28;20404;-85
2023/10/26 12:10:41;;;;;;;2.83;0.70;;;17.90;99.90;;;;;;4970797;28;20035;-77
2023/10/26 12:13:31;;;;;;;2.55;1.13;;;17.90;99.90;;;;;;4982509;28;20043;-82
2023/10/26 12:15:56;;;;;;;3.35;0.65;;;17.90;99.90;;;;;;4978703;28;20036;-77
2023/10/26 12:18:22;;;;;;;3.25;0.65;;;17.80;99.90;;;;;;4969551;29;20036;-76
2023/10/26 12:20:48;;;;;;;1.63;0.70;;;17.60;99.90;;;;;;4970385;29;20033;-76
2023/10/26 12:23:14;;;;;;;1.23;0.50;;;17.50;99.90;;;;;;4967820;29;20531;-76
2023/10/26 12:25:40;;;;;;;1.10;0.50;;;17.40;99.90;;;;;;4967591;29;20039;-77
2023/10/26 12:28:05;;;;;;;2.03;0.95;;;17.40;99.90;;;;;;4971135;28;20019;-76
2023/10/26 12:30:31;;;;;;;3.33;0.90;;;17.30;99.90;;;;;;4969418;29;20108;-76
2023/10/26 12:32:57;;;;;;;2.17;1.05;;;17.20;99.90;;;;;;4968839;29;20023;-76
2023/10/26 12:35:23;;;;;;;0.95;0.52;;;17.20;99.90;;;;;;4966582;29;20511;-76
2023/10/26 12:37:49;;;;;;;1.55;0.50;;;17.40;99.90;;;;;;4964647;28;20057;-77
2023/10/26 12:40:15;;;;;;;4.68;0.60;;;17.40;99.90;;;;;;4965106;28;20023;-77
2023/10/26 12:42:44;;;;;;;2.17;0.70;;;17.30;99.90;;;;;;4971577;28;20050;-76
2023/10/26 12:45:11;;;;;;;;;;;17.40;99.90;;;;;;4970939;28;20075;-78
2023/10/26 12:47:36;;;;;;;4.68;0.50;;;17.50;99.90;;;;;;4971213;29;19921;-76
2023/10/26 12:50:02;;;;;;;0.75;0.52;;;17.60;99.90;;;;;;4970256;28;20027;-76